sensor_id;sensor_type;location;lat;lon;timestamp;pressure;altitude;pressure_sealevel;temperature;humidity
34237;BME280;20501;45.956;13.632;2022-09-13T00:00:26;100541.25;;;17.19;74.19
34237;BME280;20501;45.956;13.632;2022-09-13T00:02:51;100544.59;;;17.06;74.71
34237;BME280;20501;45.956;13.632;2022-09-13T00:05:17;100544.84;;;17.35;73.69
34237;BME280;20501;45.956;13.632;2022-09-13T00:07:42;100540.16;;;17.43;73.54
34237;BME280;20501;45.956;13.632;2022-09-13T00:10:08;100541.94;;;17.21;74.68
34237;BME280;20501;45.956;13.632;2022-09-13T00:12:33;100545.06;;;17.63;74.50
34237;BME280;20501;45.956;13.632;2022-09-13T00:14:59;100550.44;;;17.71;73.62
34237;BME280;20501;45.956;13.632;2022-09-13T00:17:24;100541.31;;;17.49;73.46
34237;BME280;20501;45.956;13.632;2022-09-13T00:19:50;100536.75;;;17.41;74.09
34237;BME280;20501;45.956;13.632;2022-09-13T00:22:15;100533.41;;;17.69;73.33
34237;BME280;20501;45.956;13.632;2022-09-13T00:24:41;100542.06;;;17.43;73.91
34237;BME280;20501;45.956;13.632;2022-09-13T00:27:06;100534.97;;;17.33;74.21
34237;BME280;20501;45.956;13.632;2022-09-13T00:29:31;100530.28;;;17.42;73.91
34237;BME280;20501;45.956;13.632;2022-09-13T00:31:57;100539.69;;;17.40;74.23
34237;BME280;20501;45.956;13.632;2022-09-13T00:34:22;100534.66;;;17.13;75.34
34237;BME280;20501;45.956;13.632;2022-09-13T00:36:48;100541.88;;;17.59;74.14
34237;BME280;20501;45.956;13.632;2022-09-13T00:39:13;100540.13;;;17.13;75.25
34237;BME280;20501;45.956;13.632;2022-09-13T00:41:38;100550.13;;;17.21;74.97
34237;BME280;20501;45.956;13.632;2022-09-13T00:44:04;100545.47;;;17.07;75.94
34237;BME280;20501;45.956;13.632;2022-09-13T00:46:49;100540.16;;;17.43;73.81
34237;BME280;20501;45.956;13.632;2022-09-13T00:49:24;100531.41;;;17.78;73.06
34237;BME280;20501;45.956;13.632;2022-09-13T00:51:55;100535.63;;;17.36;73.30
34237;BME280;20501;45.956;13.632;2022-09-13T00:54:26;100532.06;;;17.50;73.16
34237;BME280;20501;45.956;13.632;2022-09-13T00:56:56;100523.31;;;17.85;73.07
34237;BME280;20501;45.956;13.632;2022-09-13T00:59:46;100532.09;;;18.68;69.87
34237;BME280;20501;45.956;13.632;2022-09-13T01:02:15;100535.13;;;18.95;69.58
34237;BME280;20501;45.956;13.632;2022-09-13T01:04:41;100531.44;;;18.45;70.80
34237;BME280;20501;45.956;13.632;2022-09-13T01:07:09;100524.53;;;18.92;69.53
34237;BME280;20501;45.956;13.632;2022-09-13T01:09:38;100531.03;;;19.34;67.90
34237;BME280;20501;45.956;13.632;2022-09-13T01:14:45;100518.56;;;18.60;69.60
34237;BME280;20501;45.956;13.632;2022-09-13T01:17:11;100511.59;;;18.79;69.45
34237;BME280;20501;45.956;13.632;2022-09-13T01:19:37;100515.44;;;18.85;68.06
34237;BME280;20501;45.956;13.632;2022-09-13T01:38:44;100505.03;;;18.95;68.16
34237;BME280;20501;45.956;13.632;2022-09-13T01:44:43;100493.06;;;17.71;72.72
34237;BME280;20501;45.956;13.632;2022-09-13T01:47:14;100488.94;;;17.75;72.88
34237;BME280;20501;45.956;13.632;2022-09-13T01:50:04;100484.16;;;17.62;73.06
34237;BME280;20501;45.956;13.632;2022-09-13T01:52:58;100478.09;;;17.97;70.85
34237;BME280;20501;45.956;13.632;2022-09-13T02:01:21;100484.88;;;19.31;68.56
34237;BME280;20501;45.956;13.632;2022-09-13T02:04:11;100487.47;;;18.90;67.41
34237;BME280;20501;45.956;13.632;2022-09-13T02:06:42;100480.28;;;19.10;68.17
34237;BME280;20501;45.956;13.632;2022-09-13T02:09:16;100473.50;;;18.56;69.63
34237;BME280;20501;45.956;13.632;2022-09-13T02:11:48;100477.63;;;17.78;71.77
34237;BME280;20501;45.956;13.632;2022-09-13T02:14:29;100473.44;;;18.49;71.11
34237;BME280;20501;45.956;13.632;2022-09-13T02:17:01;100471.06;;;18.90;69.15
34237;BME280;20501;45.956;13.632;2022-09-13T02:19:37;100467.22;;;18.19;69.81
34237;BME280;20501;45.956;13.632;2022-09-13T02:22:06;100476.81;;;18.95;69.45
34237;BME280;20501;45.956;13.632;2022-09-13T02:24:36;100482.53;;;18.78;68.86
34237;BME280;20501;45.956;13.632;2022-09-13T02:27:06;100481.19;;;18.67;70.15
34237;BME280;20501;45.956;13.632;2022-09-13T02:29:36;100485.06;;;19.30;68.55
34237;BME280;20501;45.956;13.632;2022-09-13T02:32:21;100486.75;;;18.81;68.68
34237;BME280;20501;45.956;13.632;2022-09-13T02:35:05;100479.59;;;19.30;68.24
34237;BME280;20501;45.956;13.632;2022-09-13T02:37:34;100488.56;;;19.45;67.57
34237;BME280;20501;45.956;13.632;2022-09-13T02:40:07;100483.84;;;19.39;67.85
34237;BME280;20501;45.956;13.632;2022-09-13T02:42:49;100486.94;;;19.58;67.09
34237;BME280;20501;45.956;13.632;2022-09-13T02:45:17;100479.75;;;18.93;67.65
34237;BME280;20501;45.956;13.632;2022-09-13T02:47:57;100481.41;;;19.16;68.46
34237;BME280;20501;45.956;13.632;2022-09-13T02:59:01;100490.31;;;18.96;67.17
34237;BME280;20501;45.956;13.632;2022-09-13T03:01:30;100483.25;;;19.09;68.57
34237;BME280;20501;45.956;13.632;2022-09-13T03:03:55;100489.09;;;19.06;68.10
34237;BME280;20501;45.956;13.632;2022-09-13T03:06:26;100479.41;;;18.81;69.19
34237;BME280;20501;45.956;13.632;2022-09-13T03:08:53;100486.31;;;18.34;71.23
34237;BME280;20501;45.956;13.632;2022-09-13T03:22:45;100482.00;;;18.46;70.29
34237;BME280;20501;45.956;13.632;2022-09-13T03:25:26;100477.44;;;18.75;69.92
34237;BME280;20501;45.956;13.632;2022-09-13T03:28:17;100477.63;;;19.17;68.90
34237;BME280;20501;45.956;13.632;2022-09-13T03:30:52;100472.47;;;18.85;69.56
34237;BME280;20501;45.956;13.632;2022-09-13T03:33:55;100475.41;;;19.34;68.07
34237;BME280;20501;45.956;13.632;2022-09-13T03:36:36;100478.03;;;19.49;67.81
34237;BME280;20501;45.956;13.632;2022-09-13T03:39:17;100476.13;;;19.43;67.68
34237;BME280;20501;45.956;13.632;2022-09-13T03:41:49;100479.00;;;19.34;68.18
34237;BME280;20501;45.956;13.632;2022-09-13T03:44:19;100475.53;;;19.54;67.52
34237;BME280;20501;45.956;13.632;2022-09-13T03:46:48;100466.56;;;18.82;68.21
34237;BME280;20501;45.956;13.632;2022-09-13T03:49:17;100461.34;;;18.87;68.89
34237;BME280;20501;45.956;13.632;2022-09-13T03:51:46;100451.09;;;18.67;69.08
34237;BME280;20501;45.956;13.632;2022-09-13T03:54:27;100457.84;;;18.71;70.04
34237;BME280;20501;45.956;13.632;2022-09-13T03:59:35;100445.06;;;19.00;69.21
34237;BME280;20501;45.956;13.632;2022-09-13T04:02:02;100448.81;;;19.21;67.85
34237;BME280;20501;45.956;13.632;2022-09-13T04:04:28;100448.72;;;19.43;67.81
34237;BME280;20501;45.956;13.632;2022-09-13T04:06:54;100452.53;;;19.48;67.47
34237;BME280;20501;45.956;13.632;2022-09-13T04:09:21;100453.59;;;19.47;67.27
34237;BME280;20501;45.956;13.632;2022-09-13T04:11:47;100460.97;;;19.18;68.53
34237;BME280;20501;45.956;13.632;2022-09-13T04:14:12;100457.78;;;19.43;67.81
34237;BME280;20501;45.956;13.632;2022-09-13T04:16:40;100452.59;;;18.27;71.23
34237;BME280;20501;45.956;13.632;2022-09-13T04:19:06;100460.44;;;18.15;70.94
34237;BME280;20501;45.956;13.632;2022-09-13T04:21:31;100452.50;;;18.85;70.03
34237;BME280;20501;45.956;13.632;2022-09-13T04:23:56;100449.09;;;18.83;69.04
34237;BME280;20501;45.956;13.632;2022-09-13T04:26:22;100446.13;;;19.34;68.15
34237;BME280;20501;45.956;13.632;2022-09-13T04:28:47;100451.84;;;18.83;68.75
34237;BME280;20501;45.956;13.632;2022-09-13T04:31:13;100456.22;;;18.99;69.08
34237;BME280;20501;45.956;13.632;2022-09-13T04:33:38;100447.41;;;18.82;68.72
34237;BME280;20501;45.956;13.632;2022-09-13T04:36:05;100451.31;;;19.23;68.85
34237;BME280;20501;45.956;13.632;2022-09-13T04:38:31;100449.41;;;18.45;70.50
34237;BME280;20501;45.956;13.632;2022-09-13T04:40:56;100442.69;;;17.74;73.01
34237;BME280;20501;45.956;13.632;2022-09-13T04:43:22;100443.53;;;18.48;71.38
34237;BME280;20501;45.956;13.632;2022-09-13T04:45:48;100452.38;;;18.93;69.66
34237;BME280;20501;45.956;13.632;2022-09-13T04:48:14;100454.66;;;18.68;70.01
34237;BME280;20501;45.956;13.632;2022-09-13T04:50:40;100458.50;;;18.95;69.18
34237;BME280;20501;45.956;13.632;2022-09-13T04:53:05;100457.78;;;18.65;69.93
34237;BME280;20501;45.956;13.632;2022-09-13T04:55:31;100456.03;;;18.35;69.87
34237;BME280;20501;45.956;13.632;2022-09-13T04:57:56;100452.91;;;18.38;70.17
34237;BME280;20501;45.956;13.632;2022-09-13T05:00:22;100455.38;;;18.33;69.95
34237;BME280;20501;45.956;13.632;2022-09-13T05:02:54;100464.09;;;18.87;69.22
34237;BME280;20501;45.956;13.632;2022-09-13T05:05:20;100460.19;;;18.75;70.07
34237;BME280;20501;45.956;13.632;2022-09-13T05:07:49;100469.88;;;19.27;68.41
34237;BME280;20501;45.956;13.632;2022-09-13T05:10:14;100466.31;;;18.77;69.83
34237;BME280;20501;45.956;13.632;2022-09-13T05:12:40;100471.38;;;18.80;69.50
34237;BME280;20501;45.956;13.632;2022-09-13T05:15:06;100472.06;;;17.87;72.41
34237;BME280;20501;45.956;13.632;2022-09-13T05:17:31;100469.84;;;18.49;71.33
34237;BME280;20501;45.956;13.632;2022-09-13T05:19:56;100465.91;;;18.36;71.48
34237;BME280;20501;45.956;13.632;2022-09-13T05:22:22;100459.53;;;18.51;71.14
34237;BME280;20501;45.956;13.632;2022-09-13T05:24:47;100465.91;;;18.80;69.94
34237;BME280;20501;45.956;13.632;2022-09-13T05:27:13;100461.69;;;18.55;70.70
34237;BME280;20501;45.956;13.632;2022-09-13T05:29:38;100463.13;;;18.95;69.58
34237;BME280;20501;45.956;13.632;2022-09-13T05:32:03;100460.31;;;18.88;70.10
34237;BME280;20501;45.956;13.632;2022-09-13T05:34:29;100465.03;;;19.23;68.91
34237;BME280;20501;45.956;13.632;2022-09-13T05:36:54;100463.50;;;18.92;69.52
34237;BME280;20501;45.956;13.632;2022-09-13T05:39:20;100468.16;;;19.20;68.88
34237;BME280;20501;45.956;13.632;2022-09-13T05:41:46;100461.03;;;18.97;69.70
34237;BME280;20501;45.956;13.632;2022-09-13T05:44:12;100462.84;;;18.90;70.22
34237;BME280;20501;45.956;13.632;2022-09-13T05:46:37;100461.44;;;18.94;70.04
34237;BME280;20501;45.956;13.632;2022-09-13T05:49:03;100471.19;;;19.31;68.72
34237;BME280;20501;45.956;13.632;2022-09-13T05:51:28;100472.78;;;19.19;68.90
34237;BME280;20501;45.956;13.632;2022-09-13T05:53:54;100475.84;;;19.38;68.44
34237;BME280;20501;45.956;13.632;2022-09-13T05:56:23;100477.63;;;19.52;68.16
34237;BME280;20501;45.956;13.632;2022-09-13T05:58:50;100483.72;;;19.47;67.89
34237;BME280;20501;45.956;13.632;2022-09-13T06:01:19;100475.19;;;19.00;69.23
34237;BME280;20501;45.956;13.632;2022-09-13T06:03:49;100468.78;;;18.50;70.68
34237;BME280;20501;45.956;13.632;2022-09-13T06:06:15;100462.66;;;18.48;71.28
34237;BME280;20501;45.956;13.632;2022-09-13T06:08:41;100462.81;;;18.39;71.64
34237;BME280;20501;45.956;13.632;2022-09-13T06:11:08;100461.22;;;18.74;70.52
34237;BME280;20501;45.956;13.632;2022-09-13T06:13:35;100467.06;;;19.14;69.39
34237;BME280;20501;45.956;13.632;2022-09-13T06:16:02;100469.56;;;19.44;68.42
34237;BME280;20501;45.956;13.632;2022-09-13T06:18:28;100461.16;;;18.67;70.41
34237;BME280;20501;45.956;13.632;2022-09-13T06:21:05;100462.59;;;18.63;71.74
34237;BME280;20501;45.956;13.632;2022-09-13T06:23:31;100462.56;;;18.56;71.46
34237;BME280;20501;45.956;13.632;2022-09-13T06:26:11;100460.66;;;18.35;72.00
34237;BME280;20501;45.956;13.632;2022-09-13T06:28:37;100468.13;;;18.48;71.66
34237;BME280;20501;45.956;13.632;2022-09-13T06:31:06;100466.13;;;18.35;72.25
34237;BME280;20501;45.956;13.632;2022-09-13T06:33:32;100462.88;;;18.46;72.47
34237;BME280;20501;45.956;13.632;2022-09-13T06:36:06;100476.63;;;18.96;70.44
34237;BME280;20501;45.956;13.632;2022-09-13T06:38:32;100480.69;;;19.07;69.81
34237;BME280;20501;45.956;13.632;2022-09-13T06:40:59;100476.19;;;19.28;69.26
34237;BME280;20501;45.956;13.632;2022-09-13T06:43:25;100477.81;;;19.15;69.31
34237;BME280;20501;45.956;13.632;2022-09-13T06:45:51;100481.00;;;19.47;68.57
34237;BME280;20501;45.956;13.632;2022-09-13T06:48:18;100483.78;;;19.61;68.40
34237;BME280;20501;45.956;13.632;2022-09-13T06:50:43;100479.56;;;19.58;68.28
34237;BME280;20501;45.956;13.632;2022-09-13T06:53:10;100479.13;;;19.55;68.26
34237;BME280;20501;45.956;13.632;2022-09-13T06:55:35;100485.28;;;19.28;68.96
34237;BME280;20501;45.956;13.632;2022-09-13T06:58:00;100468.47;;;19.03;70.14
34237;BME280;20501;45.956;13.632;2022-09-13T07:00:26;100469.19;;;19.18;69.68
34237;BME280;20501;45.956;13.632;2022-09-13T07:02:51;100474.84;;;18.88;71.11
34237;BME280;20501;45.956;13.632;2022-09-13T07:05:17;100479.06;;;18.91;70.89
34237;BME280;20501;45.956;13.632;2022-09-13T07:07:45;100476.47;;;18.83;71.08
34237;BME280;20501;45.956;13.632;2022-09-13T07:10:10;100478.81;;;18.86;71.17
34237;BME280;20501;45.956;13.632;2022-09-13T07:12:35;100479.13;;;18.76;71.38
34237;BME280;20501;45.956;13.632;2022-09-13T07:15:01;100484.81;;;18.96;71.04
34237;BME280;20501;45.956;13.632;2022-09-13T07:17:26;100487.19;;;19.06;70.88
34237;BME280;20501;45.956;13.632;2022-09-13T07:19:52;100475.19;;;18.79;71.48
34237;BME280;20501;45.956;13.632;2022-09-13T07:22:17;100478.38;;;18.82;71.39
34237;BME280;20501;45.956;13.632;2022-09-13T07:24:42;100483.41;;;19.00;71.38
34237;BME280;20501;45.956;13.632;2022-09-13T07:27:08;100485.19;;;19.15;71.19
34237;BME280;20501;45.956;13.632;2022-09-13T07:29:33;100485.22;;;19.22;71.20
34237;BME280;20501;45.956;13.632;2022-09-13T07:31:59;100486.91;;;19.23;70.51
34237;BME280;20501;45.956;13.632;2022-09-13T07:34:25;100479.41;;;19.31;70.04
34237;BME280;20501;45.956;13.632;2022-09-13T07:36:51;100475.03;;;19.37;70.01
34237;BME280;20501;45.956;13.632;2022-09-13T07:39:17;100477.81;;;19.51;69.58
34237;BME280;20501;45.956;13.632;2022-09-13T07:41:43;100475.59;;;19.68;69.27
34237;BME280;20501;45.956;13.632;2022-09-13T07:44:10;100470.53;;;19.64;69.06
34237;BME280;20501;45.956;13.632;2022-09-13T07:46:36;100467.66;;;19.79;68.38
34237;BME280;20501;45.956;13.632;2022-09-13T07:49:04;100464.66;;;19.74;69.12
34237;BME280;20501;45.956;13.632;2022-09-13T07:51:33;100456.38;;;19.96;68.29
34237;BME280;20501;45.956;13.632;2022-09-13T07:54:00;100459.16;;;20.09;67.45
34237;BME280;20501;45.956;13.632;2022-09-13T07:56:28;100467.81;;;20.13;68.08
34237;BME280;20501;45.956;13.632;2022-09-13T07:58:54;100471.19;;;20.15;67.60
34237;BME280;20501;45.956;13.632;2022-09-13T08:01:23;100480.91;;;20.24;67.04
34237;BME280;20501;45.956;13.632;2022-09-13T08:03:57;100481.78;;;20.32;66.74
34237;BME280;20501;45.956;13.632;2022-09-13T08:06:25;100486.22;;;20.39;67.29
34237;BME280;20501;45.956;13.632;2022-09-13T08:08:50;100484.56;;;20.45;67.09
34237;BME280;20501;45.956;13.632;2022-09-13T08:11:21;100480.34;;;20.42;66.77
34237;BME280;20501;45.956;13.632;2022-09-13T08:13:48;100480.16;;;20.57;65.58
34237;BME280;20501;45.956;13.632;2022-09-13T08:16:15;100484.59;;;20.59;65.51
34237;BME280;20501;45.956;13.632;2022-09-13T08:18:50;100490.28;;;20.70;65.20
34237;BME280;20501;45.956;13.632;2022-09-13T08:21:16;100491.41;;;20.90;64.99
34237;BME280;20501;45.956;13.632;2022-09-13T08:23:42;100478.31;;;20.85;65.78
34237;BME280;20501;45.956;13.632;2022-09-13T08:26:08;100478.09;;;20.93;65.67
34237;BME280;20501;45.956;13.632;2022-09-13T08:28:35;100481.88;;;20.85;65.51
34237;BME280;20501;45.956;13.632;2022-09-13T08:31:09;100470.69;;;21.07;64.73
34237;BME280;20501;45.956;13.632;2022-09-13T08:33:35;100476.41;;;21.26;62.84
34237;BME280;20501;45.956;13.632;2022-09-13T08:36:01;100474.50;;;21.13;63.59
34237;BME280;20501;45.956;13.632;2022-09-13T08:38:27;100467.28;;;21.18;63.02
34237;BME280;20501;45.956;13.632;2022-09-13T08:40:59;100476.41;;;21.12;63.15
34237;BME280;20501;45.956;13.632;2022-09-13T08:43:49;100465.59;;;21.38;62.92
34237;BME280;20501;45.956;13.632;2022-09-13T08:48:50;100469.81;;;21.33;64.14
34237;BME280;20501;45.956;13.632;2022-09-13T08:51:35;100474.88;;;21.63;63.44
34237;BME280;20501;45.956;13.632;2022-09-13T08:54:01;100472.53;;;21.47;64.99
34237;BME280;20501;45.956;13.632;2022-09-13T09:04:25;100483.09;;;21.57;64.13
34237;BME280;20501;45.956;13.632;2022-09-13T09:07:03;100476.09;;;21.68;63.93
34237;BME280;20501;45.956;13.632;2022-09-13T09:09:39;100476.31;;;21.53;64.88
34237;BME280;20501;45.956;13.632;2022-09-13T09:18:04;100467.53;;;21.96;61.38
34237;BME280;20501;45.956;13.632;2022-09-13T09:20:41;100469.72;;;22.26;60.22
34237;BME280;20501;45.956;13.632;2022-09-13T09:23:22;100465.50;;;21.78;61.90
34237;BME280;20501;45.956;13.632;2022-09-13T09:28:35;100465.41;;;21.98;63.62
34237;BME280;20501;45.956;13.632;2022-09-13T09:38:52;100450.63;;;22.70;59.54
34237;BME280;20501;45.956;13.632;2022-09-13T09:41:25;100455.75;;;22.27;61.14
34237;BME280;20501;45.956;13.632;2022-09-13T09:44:00;100455.38;;;22.56;59.69
34237;BME280;20501;45.956;13.632;2022-09-13T09:46:36;100464.13;;;22.46;60.31
34237;BME280;20501;45.956;13.632;2022-09-13T09:49:26;100462.16;;;22.15;60.50
34237;BME280;20501;45.956;13.632;2022-09-13T09:52:17;100459.75;;;22.25;60.03
34237;BME280;20501;45.956;13.632;2022-09-13T09:54:43;100458.28;;;22.61;58.09
34237;BME280;20501;45.956;13.632;2022-09-13T09:57:09;100457.31;;;22.49;58.55
34237;BME280;20501;45.956;13.632;2022-09-13T09:59:35;100456.75;;;22.97;56.57
34237;BME280;20501;45.956;13.632;2022-09-13T10:02:13;100444.44;;;22.75;55.95
34237;BME280;20501;45.956;13.632;2022-09-13T10:04:40;100444.47;;;22.68;57.08
34237;BME280;20501;45.956;13.632;2022-09-13T10:10:01;100438.72;;;22.37;58.78
34237;BME280;20501;45.956;13.632;2022-09-13T10:12:31;100436.81;;;22.77;58.36
34237;BME280;20501;45.956;13.632;2022-09-13T10:17:30;100433.53;;;22.86;56.97
34237;BME280;20501;45.956;13.632;2022-09-13T10:22:23;100426.00;;;23.26;54.43
34237;BME280;20501;45.956;13.632;2022-09-13T10:24:49;100425.41;;;23.17;54.36
34237;BME280;20501;45.956;13.632;2022-09-13T10:27:31;100431.22;;;23.09;55.38
34237;BME280;20501;45.956;13.632;2022-09-13T10:29:58;100420.91;;;22.47;56.88
34237;BME280;20501;45.956;13.632;2022-09-13T10:32:28;100430.38;;;22.83;56.50
34237;BME280;20501;45.956;13.632;2022-09-13T10:34:56;100419.47;;;22.44;57.49
34237;BME280;20501;45.956;13.632;2022-09-13T10:37:27;100422.78;;;22.78;56.45
34237;BME280;20501;45.956;13.632;2022-09-13T10:40:06;100428.31;;;22.78;54.77
34237;BME280;20501;45.956;13.632;2022-09-13T10:42:34;100423.22;;;23.00;55.64
34237;BME280;20501;45.956;13.632;2022-09-13T10:45:04;100416.78;;;22.63;55.88
34237;BME280;20501;45.956;13.632;2022-09-13T10:47:38;100414.88;;;22.63;55.71
34237;BME280;20501;45.956;13.632;2022-09-13T10:50:20;100406.34;;;22.71;56.65
34237;BME280;20501;45.956;13.632;2022-09-13T10:52:48;100409.94;;;22.40;56.30
34237;BME280;20501;45.956;13.632;2022-09-13T10:58:10;100420.63;;;22.62;56.41
34237;BME280;20501;45.956;13.632;2022-09-13T11:06:13;100414.88;;;22.63;56.17
34237;BME280;20501;45.956;13.632;2022-09-13T11:11:25;100411.38;;;23.62;52.58
34237;BME280;20501;45.956;13.632;2022-09-13T11:14:04;100414.28;;;23.49;53.58
34237;BME280;20501;45.956;13.632;2022-09-13T11:27:32;100432.50;;;23.50;54.92
34237;BME280;20501;45.956;13.632;2022-09-13T11:30:22;100427.47;;;23.03;56.73
34237;BME280;20501;45.956;13.632;2022-09-13T11:39:01;100434.78;;;23.09;58.13
34237;BME280;20501;45.956;13.632;2022-09-13T11:41:44;100421.09;;;22.77;58.67
34237;BME280;20501;45.956;13.632;2022-09-13T11:55:20;100434.16;;;22.63;59.79
34237;BME280;20501;45.956;13.632;2022-09-13T11:57:49;100427.72;;;22.95;59.78
34237;BME280;20501;45.956;13.632;2022-09-13T12:00:29;100435.66;;;22.84;61.53
34237;BME280;20501;45.956;13.632;2022-09-13T12:03:00;100433.53;;;22.86;60.69
34237;BME280;20501;45.956;13.632;2022-09-13T12:05:50;100427.56;;;22.90;60.04
34237;BME280;20501;45.956;13.632;2022-09-13T12:08:21;100424.97;;;22.69;60.70
34237;BME280;20501;45.956;13.632;2022-09-13T12:10:57;100422.41;;;22.49;61.54
34237;BME280;20501;45.956;13.632;2022-09-13T12:13:33;100420.00;;;22.60;61.04
34237;BME280;20501;45.956;13.632;2022-09-13T12:16:04;100423.13;;;22.88;61.56
34237;BME280;20501;45.956;13.632;2022-09-13T12:18:36;100421.31;;;23.45;60.53
34237;BME280;20501;45.956;13.632;2022-09-13T12:21:10;100420.13;;;23.15;60.12
34237;BME280;20501;45.956;13.632;2022-09-13T12:26:24;100427.00;;;23.50;60.10
34237;BME280;20501;45.956;13.632;2022-09-13T12:28:54;100427.75;;;23.20;59.79
34237;BME280;20501;45.956;13.632;2022-09-13T12:31:24;100422.69;;;22.92;61.57
34237;BME280;20501;45.956;13.632;2022-09-13T12:33:50;100421.00;;;22.65;61.47
34237;BME280;20501;45.956;13.632;2022-09-13T12:36:37;100420.75;;;22.92;61.94
34237;BME280;20501;45.956;13.632;2022-09-13T12:50:19;100409.25;;;22.77;61.64
34237;BME280;20501;45.956;13.632;2022-09-13T12:55:52;100406.38;;;22.90;61.68
34237;BME280;20501;45.956;13.632;2022-09-13T13:01:22;100410.75;;;23.42;61.61
34237;BME280;20501;45.956;13.632;2022-09-13T13:08:50;100413.59;;;23.35;60.53
34237;BME280;20501;45.956;13.632;2022-09-13T13:11:20;100408.91;;;22.92;61.54
34237;BME280;20501;45.956;13.632;2022-09-13T13:14:01;100415.44;;;23.16;61.38
34237;BME280;20501;45.956;13.632;2022-09-13T13:16:38;100414.72;;;22.83;62.01
34237;BME280;20501;45.956;13.632;2022-09-13T13:19:30;100407.69;;;22.30;63.19
34237;BME280;20501;45.956;13.632;2022-09-13T13:27:50;100409.72;;;22.73;62.66
34237;BME280;20501;45.956;13.632;2022-09-13T13:33:12;100408.47;;;22.69;63.35
34237;BME280;20501;45.956;13.632;2022-09-13T13:35:39;100406.84;;;22.62;63.30
34237;BME280;20501;45.956;13.632;2022-09-13T13:38:38;100408.78;;;22.54;64.42
34237;BME280;20501;45.956;13.632;2022-09-13T13:41:34;100414.00;;;22.63;64.49
34237;BME280;20501;45.956;13.632;2022-09-13T13:43:52;100405.84;;;22.24;64.54
34237;BME280;20501;45.956;13.632;2022-09-13T13:48:46;100415.25;;;22.41;65.37
34237;BME280;20501;45.956;13.632;2022-09-13T13:51:24;100411.84;;;22.39;65.15
34237;BME280;20501;45.956;13.632;2022-09-13T13:53:57;100412.78;;;22.59;64.63
34237;BME280;20501;45.956;13.632;2022-09-13T13:56:29;100409.19;;;22.58;65.32
34237;BME280;20501;45.956;13.632;2022-09-13T14:01:38;100409.19;;;23.09;63.87
34237;BME280;20501;45.956;13.632;2022-09-13T14:07:34;100405.84;;;23.25;64.12
34237;BME280;20501;45.956;13.632;2022-09-13T14:13:07;100392.00;;;22.88;64.91
34237;BME280;20501;45.956;13.632;2022-09-13T14:15:54;100396.16;;;22.97;64.29
34237;BME280;20501;45.956;13.632;2022-09-13T14:23:48;100392.31;;;22.98;64.95
34237;BME280;20501;45.956;13.632;2022-09-13T14:26:14;100392.22;;;23.30;65.03
34237;BME280;20501;45.956;13.632;2022-09-13T14:28:40;100393.63;;;23.21;63.61
34237;BME280;20501;45.956;13.632;2022-09-13T14:31:06;100389.31;;;23.25;63.67
34237;BME280;20501;45.956;13.632;2022-09-13T14:33:34;100384.75;;;23.12;64.41
34237;BME280;20501;45.956;13.632;2022-09-13T14:38:29;100380.34;;;23.30;65.01
34237;BME280;20501;45.956;13.632;2022-09-13T14:41:18;100376.47;;;23.19;65.37
34237;BME280;20501;45.956;13.632;2022-09-13T14:43:45;100377.84;;;23.28;65.68
34237;BME280;20501;45.956;13.632;2022-09-13T14:46:16;100368.47;;;23.11;65.88
34237;BME280;20501;45.956;13.632;2022-09-13T14:53:50;100375.75;;;23.05;66.71
34237;BME280;20501;45.956;13.632;2022-09-13T14:56:39;100373.22;;;23.22;66.15
34237;BME280;20501;45.956;13.632;2022-09-13T14:59:15;100373.47;;;23.21;66.41
34237;BME280;20501;45.956;13.632;2022-09-13T15:01:43;100374.09;;;23.23;67.59
34237;BME280;20501;45.956;13.632;2022-09-13T15:04:08;100378.47;;;23.30;68.16
34237;BME280;20501;45.956;13.632;2022-09-13T15:06:37;100370.81;;;23.07;68.72
34237;BME280;20501;45.956;13.632;2022-09-13T15:09:26;100375.56;;;23.00;68.21
34237;BME280;20501;45.956;13.632;2022-09-13T15:17:11;100380.66;;;23.22;70.09
34237;BME280;20501;45.956;13.632;2022-09-13T15:20:01;100374.94;;;23.16;69.84
34237;BME280;20501;45.956;13.632;2022-09-13T15:22:30;100378.16;;;23.20;69.48
34237;BME280;20501;45.956;13.632;2022-09-13T15:24:58;100372.16;;;23.23;69.62
34237;BME280;20501;45.956;13.632;2022-09-13T15:29:53;100358.34;;;23.04;70.90
34237;BME280;20501;45.956;13.632;2022-09-13T15:32:34;100369.50;;;22.91;71.85
34237;BME280;20501;45.956;13.632;2022-09-13T15:35:16;100357.78;;;22.77;71.72
34237;BME280;20501;45.956;13.632;2022-09-13T15:37:42;100361.84;;;22.75;70.39
34237;BME280;20501;45.956;13.632;2022-09-13T15:40:17;100355.03;;;22.52;70.92
34237;BME280;20501;45.956;13.632;2022-09-13T15:42:45;100359.56;;;22.39;71.84
34237;BME280;20501;45.956;13.632;2022-09-13T15:45:11;100355.63;;;22.29;72.87
34237;BME280;20501;45.956;13.632;2022-09-13T15:47:36;100352.72;;;22.49;71.74
34237;BME280;20501;45.956;13.632;2022-09-13T15:50:02;100346.59;;;22.47;71.76
34237;BME280;20501;45.956;13.632;2022-09-13T15:52:28;100353.53;;;22.56;72.25
34237;BME280;20501;45.956;13.632;2022-09-13T15:54:53;100354.81;;;22.53;71.54
34237;BME280;20501;45.956;13.632;2022-09-13T15:57:22;100347.19;;;22.55;71.40
34237;BME280;20501;45.956;13.632;2022-09-13T15:59:48;100346.50;;;22.60;71.40
34237;BME280;20501;45.956;13.632;2022-09-13T16:02:26;100348.91;;;22.50;71.66
34237;BME280;20501;45.956;13.632;2022-09-13T16:04:53;100350.19;;;22.22;72.44
34237;BME280;20501;45.956;13.632;2022-09-13T16:07:19;100341.88;;;22.29;72.83